mercredi 5 février 2014

ALERTE SPOTTING 05/02/14

32A G-EZWO easyJet
  dpt U24259  06h40
  U24260/U24255   10H50/12h00
  U24064/u24295  16h30/17h40
  arv night stop U24296 21h40

CL3 HB-JRS
   dpt 14h00

73H TC-AVP Pegasus (sticker Asia)
  PC873/PC874   17h40/18h30

772 F-GSPP Air France
  arv AF376Y 17h40

CNJ D-IAMO
  arv 18h00

 Manque les prévisions/immats Air Europa / Flybe / TAP / BA / certains Air Algérie
*** Heures en Local Time / prévisions soumises
 à modifications de dernières minutes ***

le TAF de la journée

METAR: LFPO 050330Z 17015KT 9999 SCT013 BKN033 06/03 Q0992 TEMPO
2500 SHRA BKN012= 

TAF LONG: LFPO 042300Z 0500/0606 16015G25KT 8000 -RA SCT012 BKN025 TEMPO
0500/0507 19020G35KT 2500 RA BKN012 BECMG 0507/0509 NSW TEMPO
0509/0521 22020G35KT 4000 SHRA SCT013CB BKN020 PROB40 TEMPO 0512/0518
2000 TSRA BKN012CB BECMG 0521/0523 CAVOK=


Les logs des jours précédents :
 http://www.airkalo.com/ORLYAVIATION/Logdumois.html